Time;durP1;ratioP1;P1;durP2;ratioP2;P2;SDS_P1;SDS_P2;PMS_P1;PMS_P2;Temp;Humidity;BMP_temperature;BMP_pressure;BME280_temperature;BME280_humidity;BME280_pressure;Samples;Min_cycle;Max_cycle;Signal;HPM_P1;HPM_P2
2021/01/16 00:00:42;;;;;;;35.50;22.65;;;;;;;24.27;36.71;100366.94;5045188;28;20053;-59
2021/01/16 00:03:09;;;;;;;37.42;23.52;;;;;;;24.29;37.00;100362.31;5045109;28;20071;-60
2021/01/16 00:05:36;;;;;;;35.72;21.98;;;;;;;24.29;37.32;100355.13;5051731;28;20080;-63
2021/01/16 00:08:04;;;;;;;36.05;21.90;;;;;;;24.30;36.94;100353.28;5051200;28;20049;-60
2021/01/16 00:10:32;;;;;;;37.53;22.42;;;;;;;24.32;36.75;100354.81;5045125;28;20116;-59
2021/01/16 00:12:58;;;;;;;40.65;22.70;;;;;;;24.33;36.67;100366.38;5051739;28;20052;-55
2021/01/16 00:15:25;;;;;;;35.08;21.83;;;;;;;24.33;36.68;100363.72;5051928;28;20124;-59
2021/01/16 00:17:58;;;;;;;37.78;23.27;;;;;;;24.35;36.71;100353.69;5051054;28;20120;-59
2021/01/16 00:20:25;;;;;;;30.60;21.65;;;;;;;24.35;36.70;100351.00;5044897;28;20127;-59
2021/01/16 00:22:51;;;;;;;33.65;20.70;;;;;;;24.36;36.68;100355.38;5050441;28;20122;-59
2021/01/16 00:25:18;;;;;;;34.38;21.27;;;;;;;24.38;36.76;100352.59;5050365;28;20477;-58
2021/01/16 00:27:45;;;;;;;35.78;21.55;;;;;;;24.39;36.77;100355.13;5044510;28;20542;-58
2021/01/16 00:30:13;;;;;;;30.52;19.50;;;;;;;24.37;36.51;100345.53;5051681;28;20045;-58
2021/01/16 00:32:41;;;;;;;34.05;20.90;;;;;;;24.37;36.75;100342.84;5049359;28;20048;-58
2021/01/16 00:35:09;;;;;;;33.90;20.35;;;;;;;24.33;36.78;100344.94;5047974;28;20452;-59
2021/01/16 00:37:36;;;;;;;32.08;19.67;;;;;;;24.35;36.95;100348.31;5047997;28;20408;-60
2021/01/16 00:40:05;;;;;;;33.15;20.10;;;;;;;24.36;36.66;100339.28;5048031;28;20136;-60
2021/01/16 00:42:31;;;;;;;33.40;20.30;;;;;;;24.36;36.61;100338.47;5049268;28;20128;-60
2021/01/16 00:44:58;;;;;;;31.45;18.67;;;;;;;24.37;36.38;100341.03;5052301;28;20049;-60
2021/01/16 00:47:24;;;;;;;29.63;18.88;;;;;;;24.38;36.57;100342.72;5053408;28;20049;-60
2021/01/16 00:49:51;;;;;;;32.13;19.88;;;;;;;24.37;36.54;100345.53;5053293;28;20515;-60
2021/01/16 00:52:17;;;;;;;29.73;19.23;;;;;;;24.38;36.56;100342.72;5054667;28;20069;-60
2021/01/16 00:54:43;;;;;;;30.85;18.63;;;;;;;24.40;36.56;100347.91;5054874;28;20116;-61
2021/01/16 00:57:09;;;;;;;29.02;18.05;;;;;;;24.42;36.68;100354.81;5054290;28;20064;-59
2021/01/16 00:59:36;;;;;;;29.55;18.70;;;;;;;24.42;36.59;100353.97;5054368;28;20395;-60
2021/01/16 01:02:03;;;;;;;31.20;19.02;;;;;;;24.40;36.60;100354.13;5054541;28;20044;-58
2021/01/16 01:04:29;;;;;;;30.83;18.95;;;;;;;24.43;36.37;100343.09;5053534;28;20408;-58
2021/01/16 01:06:55;;;;;;;28.77;18.98;;;;;;;24.44;36.42;100346.63;5054557;28;20135;-61
2021/01/16 01:09:21;;;;;;;28.60;17.60;;;;;;;24.45;36.41;100338.44;5039598;28;20053;-58
2021/01/16 01:11:47;;;;;;;26.83;16.77;;;;;;;24.47;36.41;100349.84;5053896;28;20041;-60
2021/01/16 01:14:13;;;;;;;28.20;17.30;;;;;;;24.48;36.25;100340.84;5053882;28;20076;-60
2021/01/16 01:16:40;;;;;;;27.15;17.95;;;;;;;24.49;36.28;100339.84;5053978;28;20049;-60
2021/01/16 01:19:07;;;;;;;27.17;18.70;;;;;;;24.49;36.31;100334.47;5039411;28;20050;-59
2021/01/16 01:21:33;;;;;;;28.45;17.98;;;;;;;24.50;36.19;100328.13;5053723;28;20103;-57
2021/01/16 01:23:59;;;;;;;28.15;17.88;;;;;;;24.50;36.29;100330.81;5054197;28;20037;-58
2021/01/16 01:26:25;;;;;;;29.60;17.73;;;;;;;24.52;36.31;100331.50;5053390;28;20045;-59
2021/01/16 01:28:52;;;;;;;29.42;17.08;;;;;;;24.53;36.15;100333.19;5053149;28;20072;-59
2021/01/16 01:31:18;;;;;;;28.52;16.20;;;;;;;24.54;36.29;100331.34;5054207;28;20041;-59
2021/01/16 01:33:44;;;;;;;29.52;17.42;;;;;;;24.55;36.23;100333.03;5052839;28;20140;-55
2021/01/16 01:36:11;;;;;;;26.40;16.90;;;;;;;24.55;36.30;100333.03;5053878;28;20091;-56
2021/01/16 01:38:37;;;;;;;25.42;16.23;;;;;;;24.56;36.26;100322.16;5054027;28;20082;-56
2021/01/16 01:41:04;;;;;;;24.58;16.52;;;;;;;24.56;36.23;100324.84;5054509;28;20127;-59
2021/01/16 01:43:30;;;;;;;24.75;16.35;;;;;;;24.57;36.00;100323.88;5053815;28;20562;-55
2021/01/16 01:45:56;;;;;;;24.27;15.75;;;;;;;24.57;36.06;100326.56;5047520;28;20069;-55
2021/01/16 01:48:24;;;;;;;28.05;16.13;;;;;;;24.58;35.81;100322.06;5053421;28;20049;-60
2021/01/16 01:50:50;;;;;;;25.50;16.25;;;;;;;24.59;35.95;100323.75;5053365;28;20048;-55
2021/01/16 01:53:19;;;;;;;24.40;15.90;;;;;;;24.59;35.92;100316.53;5053161;28;20049;-56
2021/01/16 01:55:50;;;;;;;23.30;15.23;;;;;;;24.59;36.09;100308.50;5053736;28;20045;-56
2021/01/16 01:58:18;;;;;;;26.95;16.73;;;;;;;24.62;35.92;100312.72;5053622;28;20045;-56
2021/01/16 02:00:46;;;;;;;25.08;16.50;;;;;;;24.59;35.93;100308.50;5052675;28;20045;-57
2021/01/16 02:03:14;;;;;;;24.15;15.13;;;;;;;24.59;35.81;100307.66;5052091;28;20053;-59
2021/01/16 02:05:42;;;;;;;24.85;16.13;;;;;;;24.58;35.77;100306.81;5053341;28;20053;-57
2021/01/16 02:08:08;;;;;;;22.77;15.07;;;;;;;24.59;35.77;100313.88;5053046;28;20049;-59
2021/01/16 02:10:35;;;;;;;23.67;14.95;;;;;;;24.58;35.58;100311.34;5053320;28;20494;-57
2021/01/16 02:13:01;;;;;;;25.58;15.95;;;;;;;24.58;35.81;100306.81;5052634;28;20098;-56
2021/01/16 02:15:36;;;;;;;25.30;15.50;;;;;;;24.58;35.94;100300.63;5053004;28;20048;-55
2021/01/16 02:18:10;;;;;;;24.05;14.88;;;;;;;24.57;35.74;100289.03;5053323;28;20049;-56
2021/01/16 02:20:37;;;;;;;24.65;14.38;;;;;;;24.58;35.80;100290.72;5050880;28;20091;-60
2021/01/16 02:23:20;;;;;;;21.98;14.32;;;;;;;24.59;35.76;100283.53;5052577;28;20056;-59
2021/01/16 02:26:06;;;;;;;23.48;15.60;;;;;;;24.59;35.95;100281.69;5052825;28;20049;-60
2021/01/16 02:28:36;;;;;;;22.25;14.65;;;;;;;24.60;35.73;100290.59;5053239;28;20053;-59
2021/01/16 02:31:04;;;;;;;20.45;13.70;;;;;;;24.60;35.73;100295.94;5053227;28;20049;-59
2021/01/16 02:33:31;;;;;;;21.60;14.30;;;;;;;24.60;35.62;100294.09;5052801;28;20514;-59
2021/01/16 02:36:08;;;;;;;22.88;14.20;;;;;;;24.60;35.63;100294.09;5053147;28;20047;-61
2021/01/16 02:38:44;;;;;;;22.15;13.27;;;;;;;24.59;35.68;100292.41;5052865;28;20136;-58
2021/01/16 02:41:23;;;;;;;21.65;13.48;;;;;;;24.62;35.60;100292.13;5052825;28;20045;-58
2021/01/16 02:44:00;;;;;;;20.52;13.98;;;;;;;24.62;35.64;100291.28;5052155;28;20098;-58
2021/01/16 02:46:29;;;;;;;22.80;13.52;;;;;;;24.62;35.57;100292.13;5052822;28;20049;-60
2021/01/16 02:49:05;;;;;;;21.13;14.47;;;;;;;24.63;35.53;100293.81;5049798;28;20049;-58
2021/01/16 02:51:40;;;;;;;24.00;14.48;;;;;;;24.62;35.38;100292.13;5039770;28;20045;-60
2021/01/16 02:54:10;;;;;;;19.90;13.30;;;;;;;24.62;35.60;100292.13;5035288;28;20041;-58
2021/01/16 02:56:37;;;;;;;21.27;13.90;;;;;;;24.65;35.59;100293.66;5038664;28;20037;-59
2021/01/16 02:59:05;;;;;;;22.42;13.75;;;;;;;24.63;35.45;100288.44;5052376;28;20057;-61
2021/01/16 03:01:35;;;;;;;20.58;12.85;;;;;;;24.66;35.39;100291.81;5051682;28;20049;-59
2021/01/16 03:04:01;;;;;;;20.13;13.50;;;;;;;24.67;35.35;100289.00;5052727;28;20045;-60
2021/01/16 03:06:28;;;;;;;20.13;12.82;;;;;;;24.67;35.47;100282.78;5052390;28;20057;-61
2021/01/16 03:08:56;;;;;;;21.55;13.80;;;;;;;24.67;35.59;100283.63;5052404;28;20049;-62
2021/01/16 03:11:26;;;;;;;21.58;13.45;;;;;;;24.68;35.37;100279.13;5052518;28;20053;-59
2021/01/16 03:13:54;;;;;;;21.98;13.55;;;;;;;24.69;35.40;100280.78;5052043;28;20059;-62
2021/01/16 03:16:28;;;;;;;21.65;13.60;;;;;;;24.68;35.25;100279.13;5052397;28;20131;-61
2021/01/16 03:18:56;;;;;;;21.48;12.55;;;;;;;24.68;35.42;100287.16;5044455;28;20056;-60
2021/01/16 03:21:23;;;;;;;19.27;12.40;;;;;;;24.69;35.24;100283.47;5043797;28;20049;-61
2021/01/16 03:23:49;;;;;;;19.95;12.52;;;;;;;24.71;35.27;100290.38;5034009;28;20071;-60
2021/01/16 03:26:15;;;;;;;20.13;12.98;;;;;;;24.70;35.21;100286.00;5049361;28;20048;-61
2021/01/16 03:28:41;;;;;;;20.55;13.05;;;;;;;24.71;35.30;100284.16;5051207;28;20052;-60
2021/01/16 03:31:07;;;;;;;20.27;12.65;;;;;;;24.70;35.21;100291.38;5051987;28;20484;-61
2021/01/16 03:33:34;;;;;;;21.23;13.10;;;;;;;24.70;35.16;100294.03;5051516;28;20056;-59
2021/01/16 03:36:01;;;;;;;21.45;13.05;;;;;;;24.70;35.33;100293.22;5052401;28;20132;-58
2021/01/16 03:38:27;;;;;;;21.73;12.98;;;;;;;24.71;35.17;100300.25;5052167;28;20130;-60
2021/01/16 03:40:53;;;;;;;21.05;12.50;;;;;;;24.72;35.20;100301.94;5051846;28;20105;-60
2021/01/16 03:43:19;;;;;;;17.33;12.07;;;;;;;24.72;35.17;100296.59;5052139;28;20041;-60
2021/01/16 03:45:45;;;;;;;21.17;13.75;;;;;;;24.71;34.99;100300.25;5052498;28;20155;-59
2021/01/16 03:48:11;;;;;;;17.40;12.45;;;;;;;24.72;35.09;100296.59;5051670;28;20055;-61
2021/01/16 03:50:38;;;;;;;21.75;13.32;;;;;;;24.71;34.98;100289.53;5052138;28;20128;-60
2021/01/16 03:53:05;;;;;;;19.90;12.43;;;;;;;24.72;34.99;100291.22;5052217;28;20415;-62
2021/01/16 03:55:31;;;;;;;21.75;13.32;;;;;;;24.73;35.06;100292.91;5052289;28;20045;-59
2021/01/16 03:57:57;;;;;;;18.80;12.27;;;;;;;24.74;34.84;100294.59;5049082;28;20051;-59
2021/01/16 04:00:23;;;;;;;18.38;12.55;;;;;;;24.73;34.90;100292.91;5030524;28;20110;-59
2021/01/16 04:02:49;;;;;;;18.30;12.23;;;;;;;24.73;34.88;100300.94;5031739;28;20120;-61
2021/01/16 04:05:16;;;;;;;18.00;11.82;;;;;;;24.74;34.84;100300.78;5031761;28;20400;-61
2021/01/16 04:07:47;;;;;;;20.35;12.52;;;;;;;24.74;34.86;100297.28;5031853;28;20390;-59
2021/01/16 04:10:14;;;;;;;20.20;11.90;;;;;;;24.75;34.74;100294.44;5032220;28;20111;-61
2021/01/16 04:12:40;;;;;;;20.77;12.70;;;;;;;24.76;34.68;100295.28;5032034;28;20041;-61
2021/01/16 04:15:07;;;;;;;20.38;11.75;;;;;;;24.75;34.80;100297.13;5032153;28;20049;-61
2021/01/16 04:17:34;;;;;;;17.85;11.82;;;;;;;24.76;34.86;100289.91;5032011;28;20051;-58
2021/01/16 04:20:00;;;;;;;18.00;11.82;;;;;;;24.76;34.73;100292.59;5031723;28;20489;-62
2021/01/16 04:22:26;;;;;;;18.70;12.15;;;;;;;24.76;34.80;100281.88;5031681;28;20077;-61
2021/01/16 04:24:53;;;;;;;21.77;12.68;;;;;;;24.77;34.69;100280.88;5032026;28;20052;-60
2021/01/16 04:27:19;;;;;;;20.13;12.15;;;;;;;24.78;34.73;100280.75;5045348;28;20041;-58
2021/01/16 04:29:46;;;;;;;16.75;11.68;;;;;;;24.78;34.71;100279.88;5054724;28;20102;-62
2021/01/16 04:32:12;;;;;;;19.98;12.52;;;;;;;24.78;34.75;100282.56;5054344;28;20575;-60
2021/01/16 04:34:41;;;;;;;19.85;12.00;;;;;;;24.79;34.77;100276.25;5055060;28;20497;-63
2021/01/16 04:37:07;;;;;;;18.98;12.48;;;;;;;24.79;34.66;100276.25;5054109;28;20072;-61
2021/01/16 04:39:33;;;;;;;19.17;12.02;;;;;;;24.81;34.85;100274.25;5055140;28;20125;-64
2021/01/16 04:42:04;;;;;;;18.38;12.13;;;;;;;24.80;34.70;100277.94;5055228;28;20045;-61
2021/01/16 04:44:35;;;;;;;16.75;11.48;;;;;;;24.81;34.55;100268.91;5055394;28;20048;-61
2021/01/16 04:47:03;;;;;;;18.38;11.88;;;;;;;24.80;34.65;100264.53;5055185;28;20049;-61
2021/01/16 04:49:31;;;;;;;18.73;12.00;;;;;;;24.80;35.02;100269.88;5054722;28;20087;-63
2021/01/16 04:51:58;;;;;;;19.58;11.57;;;;;;;24.81;34.64;100268.91;5055261;28;20064;-62
2021/01/16 04:54:26;;;;;;;17.67;11.52;;;;;;;24.83;34.53;100266.91;5053952;28;20484;-60
2021/01/16 04:56:52;;;;;;;18.02;11.90;;;;;;;24.83;34.64;100267.75;5046919;28;20051;-62
2021/01/16 04:59:19;;;;;;;18.50;12.07;;;;;;;24.83;34.65;100272.25;5034765;28;20065;-65
2021/01/16 05:01:47;;;;;;;17.33;12.13;;;;;;;24.84;34.76;100268.59;5051768;28;20045;-61
2021/01/16 05:04:16;;;;;;;18.25;10.82;;;;;;;24.83;34.58;100262.38;5040146;28;20041;-60
2021/01/16 05:06:42;;;;;;;15.35;11.07;;;;;;;24.83;34.58;100267.75;5046829;28;20094;-60
2021/01/16 05:09:08;;;;;;;18.13;11.93;;;;;;;24.82;34.57;100268.75;5047332;28;20041;-61
2021/01/16 05:11:42;;;;;;;17.73;11.82;;;;;;;24.81;34.64;100269.75;5053665;28;20555;-62
2021/01/16 05:14:15;;;;;;;21.30;12.00;;;;;;;24.81;34.57;100261.69;5053188;28;20055;-61
2021/01/16 05:16:56;;;;;;;19.33;11.93;;;;;;;24.81;34.48;100261.69;5046718;28;20049;-60
2021/01/16 05:19:25;;;;;;;17.92;11.95;;;;;;;24.80;34.53;100254.66;5048719;28;20053;-59
2021/01/16 05:21:51;;;;;;;19.08;12.10;;;;;;;24.79;34.55;100252.97;5054266;28;20051;-59
2021/01/16 05:24:17;;;;;;;19.02;11.57;;;;;;;24.80;34.41;100245.75;5053907;28;20041;-59
2021/01/16 05:27:00;;;;;;;17.20;11.30;;;;;;;24.80;34.36;100240.41;5053948;28;20411;-60
2021/01/16 05:29:27;;;;;;;17.98;11.73;;;;;;;24.80;34.36;100251.13;5054283;28;20053;-62
2021/01/16 05:31:55;;;;;;;17.35;11.50;;;;;;;24.78;34.42;100243.22;5054334;28;20044;-62
2021/01/16 05:34:23;;;;;;;19.42;11.70;;;;;;;24.78;34.41;100248.59;5054201;28;20095;-61
2021/01/16 05:36:50;;;;;;;18.45;11.55;;;;;;;24.79;34.37;100249.44;5053534;28;20131;-61
2021/01/16 05:39:17;;;;;;;18.02;11.50;;;;;;;24.78;34.51;100242.34;5053973;28;20059;-61
2021/01/16 05:41:44;;;;;;;16.08;10.65;;;;;;;24.79;34.28;100238.72;5054006;28;20045;-61
2021/01/16 05:44:11;;;;;;;16.70;11.15;;;;;;;24.79;34.30;100238.72;5053878;28;20049;-60
2021/01/16 05:46:43;;;;;;;19.20;11.90;;;;;;;24.77;34.32;100236.16;5051751;28;20041;-60
2021/01/16 05:49:14;;;;;;;17.42;11.40;;;;;;;24.79;34.32;100244.91;5052895;28;20424;-60
2021/01/16 05:51:43;;;;;;;15.77;10.32;;;;;;;24.79;34.21;100239.56;5053100;28;20041;-60
2021/01/16 05:54:09;;;;;;;19.42;11.35;;;;;;;24.81;34.36;100239.41;5052901;28;20393;-60
2021/01/16 05:56:36;;;;;;;17.42;11.77;;;;;;;24.80;34.20;100227.84;5053666;28;20131;-61
2021/01/16 05:59:03;;;;;;;20.48;12.40;;;;;;;24.81;34.37;100239.41;5053474;28;20056;-60
2021/01/16 06:01:36;;;;;;;15.38;11.07;;;;;;;24.80;34.26;100225.16;5053616;28;20098;-59
2021/01/16 06:04:04;;;;;;;17.17;11.38;;;;;;;24.81;34.17;100236.72;5052815;28;20493;-60
2021/01/16 06:06:33;;;;;;;18.30;11.73;;;;;;;24.81;34.19;100226.00;5053561;28;20055;-61
2021/01/16 06:08:59;;;;;;;18.50;11.07;;;;;;;24.82;34.18;100227.69;5053152;28;20102;-62
2021/01/16 06:11:25;;;;;;;18.77;11.10;;;;;;;24.83;34.05;100226.69;5053389;28;20076;-60
2021/01/16 06:13:56;;;;;;;17.88;11.27;;;;;;;24.83;34.12;100226.69;5052515;28;20090;-60
2021/01/16 06:16:22;;;;;;;18.13;12.27;;;;;;;24.83;34.03;100230.22;5053413;28;20055;-60
2021/01/16 06:18:52;;;;;;;16.98;11.25;;;;;;;24.83;34.07;100232.88;5052441;28;20053;-60
2021/01/16 06:21:26;;;;;;;16.25;11.82;;;;;;;24.83;34.03;100230.22;5053236;28;20052;-60
2021/01/16 06:23:55;;;;;;;18.20;11.48;;;;;;;24.83;33.98;100235.56;5053443;28;20045;-60
2021/01/16 06:26:21;;;;;;;16.67;11.43;;;;;;;24.84;33.93;100231.06;5041548;28;20094;-60
2021/01/16 06:28:56;;;;;;;16.92;11.60;;;;;;;24.83;33.94;100238.25;5033096;28;20048;-61
2021/01/16 06:31:24;;;;;;;17.42;11.68;;;;;;;24.83;33.87;100232.03;5033207;28;20045;-60
2021/01/16 06:33:59;;;;;;;18.33;11.70;;;;;;;24.84;34.01;100228.38;5042170;28;20045;-60
2021/01/16 06:36:27;;;;;;;16.17;11.05;;;;;;;24.83;33.88;100227.53;5052901;28;20065;-60
2021/01/16 06:38:59;;;;;;;16.48;11.95;;;;;;;24.84;33.83;100225.69;5053045;28;20059;-60
2021/01/16 06:41:31;;;;;;;16.55;12.15;;;;;;;24.85;33.82;100225.53;5052859;28;20060;-61
2021/01/16 06:43:57;;;;;;;18.02;11.75;;;;;;;24.87;33.67;100220.88;5052423;28;20514;-61
2021/01/16 06:46:42;;;;;;;15.90;10.52;;;;;;;24.87;33.71;100220.88;5052764;28;20064;-61
2021/01/16 06:49:18;;;;;;;16.08;11.00;;;;;;;24.88;33.71;100221.72;5052023;28;20044;-61
2021/01/16 06:51:44;;;;;;;17.52;11.80;;;;;;;24.90;33.83;100227.75;5050053;28;20106;-64
2021/01/16 06:54:11;;;;;;;15.98;10.93;;;;;;;24.90;33.67;100219.72;5051303;28;20041;-60
2021/01/16 06:56:39;;;;;;;21.42;12.43;;;;;;;24.90;33.62;100219.72;5051818;28;20508;-60
2021/01/16 06:59:13;;;;;;;17.13;11.43;;;;;;;24.91;33.70;100221.41;5052184;28;20515;-61
2021/01/16 07:01:40;;;;;;;18.42;10.98;;;;;;;24.90;33.51;100217.88;5051576;28;20045;-65
2021/01/16 07:04:11;;;;;;;17.02;10.93;;;;;;;24.93;34.03;100216.72;5051813;28;20044;-66
2021/01/16 07:06:47;;;;;;;14.95;10.23;;;;;;;24.93;33.91;100219.41;5048366;28;20049;-61
2021/01/16 07:09:18;;;;;;;18.38;11.85;;;;;;;24.95;34.00;100222.78;5048240;28;20068;-61
2021/01/16 07:11:46;;;;;;;16.77;11.00;;;;;;;24.98;33.93;100227.00;5050443;28;20118;-62
2021/01/16 07:14:12;;;;;;;17.98;11.25;;;;;;;24.98;33.99;100227.84;5049861;28;20408;-61
2021/01/16 07:16:41;;;;;;;21.70;11.85;;;;;;;24.98;34.03;100230.50;5049719;28;20554;-62
2021/01/16 07:19:07;;;;;;;20.60;11.02;;;;;;;24.99;33.67;100223.31;5048772;28;20049;-61
2021/01/16 07:21:39;;;;;;;18.67;11.90;;;;;;;25.01;33.82;100229.44;5050356;28;20032;-60
2021/01/16 07:24:07;;;;;;;19.48;11.85;;;;;;;25.03;33.74;100225.59;5050755;28;20041;-67
2021/01/16 07:26:36;;;;;;;19.23;11.35;;;;;;;25.05;33.96;100220.91;5047306;28;20049;-60
2021/01/16 07:29:06;;;;;;;20.70;12.13;;;;;;;25.07;33.43;100210.88;5046786;28;20124;-58
2021/01/16 07:31:36;;;;;;;23.13;12.60;;;;;;;25.09;33.50;100218.75;5046664;28;20051;-60
2021/01/16 07:34:03;;;;;;;19.23;12.77;;;;;;;25.12;33.50;100215.78;5044810;28;20839;-60
2021/01/16 07:36:29;;;;;;;19.92;12.13;;;;;;;25.14;33.28;100217.31;5029410;28;20053;-56
2021/01/16 07:38:57;;;;;;;18.45;12.15;;;;;;;25.16;33.28;100219.84;5042488;28;20386;-55
2021/01/16 07:41:30;;;;;;;22.77;12.18;;;;;;;25.18;33.02;100213.31;5040723;28;20037;-59
2021/01/16 07:44:08;;;;;;;19.13;11.95;;;;;;;25.19;33.12;100217.69;5041210;28;20041;-59
2021/01/16 07:46:35;;;;;;;17.30;11.68;;;;;;;25.22;33.14;100208.50;5037197;28;20052;-61
2021/01/16 07:49:04;;;;;;;20.58;11.82;;;;;;;25.22;33.04;100213.88;5049031;28;20544;-58
2021/01/16 07:51:32;;;;;;;20.30;12.43;;;;;;;25.23;32.90;100211.03;5046621;28;20132;-58
2021/01/16 07:54:06;;;;;;;20.02;12.00;;;;;;;25.25;33.11;100218.09;5042703;28;20140;-63
2021/01/16 07:56:41;;;;;;;24.65;13.13;;;;;;;25.28;32.42;100204.34;5048463;28;20045;-63
2021/01/16 07:59:14;;;;;;;24.10;11.93;;;;;;;25.28;32.50;100202.50;5047422;28;20369;-65
2021/01/16 08:02:14;;;;;;;19.83;12.75;;;;;;;25.30;32.65;100205.03;5046350;28;20513;-56
2021/01/16 08:04:50;;;;;;;19.48;12.15;;;;;;;25.30;32.27;100205.03;5031773;28;20049;-59
2021/01/16 08:07:21;;;;;;;19.30;12.45;;;;;;;25.30;32.33;100199.69;5047333;28;20037;-59
2021/01/16 08:09:54;;;;;;;19.38;11.43;;;;;;;25.32;32.91;100193.16;5047967;28;20075;-61
2021/01/16 08:12:22;;;;;;;19.40;12.30;;;;;;;25.37;32.66;100196.22;5053470;28;20111;-53
2021/01/16 08:14:50;;;;;;;20.25;11.95;;;;;;;25.41;32.66;100194.09;5049328;28;20045;-63
2021/01/16 08:17:20;;;;;;;22.35;12.65;;;;;;;25.43;32.64;100197.44;5045537;28;20128;-54
2021/01/16 08:20:05;;;;;;;24.15;13.00;;;;;;;25.44;32.82;100191.09;5044916;28;20488;-65
2021/01/16 08:22:37;;;;;;;23.42;12.30;;;;;;;25.46;32.76;100192.59;5045378;28;20045;-71
2021/01/16 08:25:05;;;;;;;21.90;11.20;;;;;;;25.49;32.80;100186.94;5045231;28;20040;-72
2021/01/16 08:27:33;;;;;;;19.65;12.30;;;;;;;25.55;32.46;100182.75;5047592;28;20049;-65
2021/01/16 08:30:09;;;;;;;22.77;12.15;;;;;;;25.59;32.51;100178.75;5045982;28;20041;-64
2021/01/16 08:33:01;;;;;;;24.05;12.25;;;;;;;25.64;32.46;100181.00;5044342;28;20386;-61
2021/01/16 08:35:30;;;;;;;21.25;12.35;;;;;;;25.65;32.40;100170.09;5043231;28;20056;-62
2021/01/16 08:38:24;;;;;;;22.52;12.48;;;;;;;25.66;32.16;100173.63;5051506;28;20416;-61
2021/01/16 08:41:02;;;;;;;22.00;12.15;;;;;;;25.68;32.26;100161.75;5046428;28;20045;-61
2021/01/16 08:43:30;;;;;;;17.90;11.73;;;;;;;25.68;32.30;100156.38;5045764;28;20049;-61
2021/01/16 08:46:15;;;;;;;24.75;12.63;;;;;;;25.70;32.47;100142.81;5043843;28;20098;-61
2021/01/16 08:48:42;;;;;;;22.33;11.88;;;;;;;25.70;32.42;100146.34;5053771;28;20599;-60
2021/01/16 08:51:36;;;;;;;21.52;11.63;;;;;;;25.69;32.37;100139.28;5052023;28;20048;-60
2021/01/16 08:54:16;;;;;;;22.27;13.43;;;;;;;25.70;32.42;100137.44;5047465;28;20120;-60
2021/01/16 08:56:44;;;;;;;23.10;12.93;;;;;;;25.72;32.19;100140.81;5050981;28;20037;-62
2021/01/16 08:59:16;;;;;;;24.00;13.00;;;;;;;25.71;32.26;100137.28;5051663;28;20484;-63
2021/01/16 09:01:43;;;;;;;21.48;12.90;;;;;;;25.70;32.29;100135.59;5051278;28;20040;-63
2021/01/16 09:04:31;;;;;;;22.02;12.45;;;;;;;25.69;32.48;100125.84;5051878;28;20053;-64
2021/01/16 09:07:11;;;;;;;20.52;12.65;;;;;;;25.68;32.46;100126.03;5046324;28;20041;-62
2021/01/16 09:09:37;;;;;;;21.02;12.00;;;;;;;25.70;32.33;100127.53;5050822;28;20041;-63
2021/01/16 09:12:05;;;;;;;28.10;12.07;;;;;;;25.66;32.31;100122.63;5048290;28;20551;-62
2021/01/16 09:14:32;;;;;;;21.33;11.93;;;;;;;25.63;31.93;100129.16;5051480;28;20037;-62
2021/01/16 09:17:14;;;;;;;26.90;12.48;;;;;;;25.60;32.00;100121.38;5052282;28;20083;-62
2021/01/16 09:19:41;;;;;;;18.55;12.32;;;;;;;25.58;31.93;100111.81;5048797;28;20490;-62
2021/01/16 09:22:20;;;;;;;21.52;12.63;;;;;;;25.57;32.00;100112.81;5052416;28;20076;-62
2021/01/16 09:24:47;;;;;;;22.77;12.93;;;;;;;25.55;31.88;100110.28;5048072;28;20511;-62
2021/01/16 09:27:27;;;;;;;22.50;12.05;;;;;;;25.53;31.88;100109.63;5047870;28;20045;-62
2021/01/16 09:29:54;;;;;;;;;;;;;;;25.60;32.12;100105.28;5045722;28;20120;-63
2021/01/16 09:32:33;;;;;;;21.70;12.02;;;;;;;25.46;32.12;100103.19;5049875;28;20011;-63
2021/01/16 09:35:00;;;;;;;19.80;12.10;;;;;;;25.45;31.91;100097.00;5046951;28;20041;-62
2021/01/16 09:37:29;;;;;;;20.15;11.93;;;;;;;25.47;31.71;100089.63;5025563;28;20041;-63
2021/01/16 09:40:16;;;;;;;19.33;11.75;;;;;;;25.50;31.93;100086.63;5030003;28;20144;-63
2021/01/16 09:42:44;;;;;;;20.45;11.57;;;;;;;25.52;32.08;100083.78;5020832;28;20455;-60
2021/01/16 09:45:12;;;;;;;29.02;12.15;;;;;;;25.54;32.07;100079.94;5023982;28;20056;-57
2021/01/16 09:47:59;;;;;;;26.60;12.00;;;;;;;25.62;32.22;100071.09;5026215;28;20104;-55
2021/01/16 09:50:28;;;;;;;17.63;11.68;;;;;;;25.67;31.92;100068.78;5019036;28;20132;-57
2021/01/16 09:53:04;;;;;;;37.80;18.55;;;;;;;25.16;26.04;100075.81;5032413;28;20045;-71
2021/01/16 09:55:34;;;;;;;37.75;21.77;;;;;;;20.39;27.72;100085.78;5022192;28;20054;-69
2021/01/16 09:58:01;;;;;;;33.00;19.67;;;;;;;16.26;30.54;100085.94;5025070;28;20048;-69
2021/01/16 10:00:30;;;;;;;34.88;21.45;;;;;;;13.30;32.95;100087.31;5022051;28;20137;-69
2021/01/16 10:03:08;;;;;;;40.20;22.13;;;;;;;11.03;34.97;100085.78;5029200;28;20533;-69
2021/01/16 10:05:36;;;;;;;32.70;18.10;;;;;;;9.20;37.08;100092.09;5026128;28;20072;-69
2021/01/16 10:08:03;;;;;;;28.40;17.25;;;;;;;7.57;38.84;100082.44;5023047;28;20519;-69
2021/01/16 10:10:43;;;;;;;28.15;17.00;;;;;;;6.51;40.64;100091.34;5025763;28;20060;-69
2021/01/16 10:13:11;;;;;;;29.77;17.00;;;;;;;6.05;41.15;100085.47;5030921;28;20448;-69
2021/01/16 10:15:48;;;;;;;29.65;16.05;;;;;;;5.47;42.15;100085.81;5028125;28;20049;-69
2021/01/16 10:18:18;;;;;;;26.67;15.68;;;;;;;4.94;43.14;100079.91;5023779;28;20065;-70
2021/01/16 10:21:01;;;;;;;26.08;15.48;;;;;;;4.73;43.83;100072.47;5018186;28;20053;-69
2021/01/16 10:23:29;;;;;;;29.38;14.93;;;;;;;4.49;44.31;100072.03;5023735;28;20056;-70
2021/01/16 10:26:07;;;;;;;33.50;17.73;;;;;;;4.09;45.26;100068.34;5027260;28;20503;-70
2021/01/16 10:28:35;;;;;;;23.67;12.43;;;;;;;3.49;46.17;100073.47;5021472;28;20428;-69
2021/01/16 10:31:04;;;;;;;25.58;14.65;;;;;;;3.04;47.16;100068.78;5016829;28;20057;-69
2021/01/16 10:33:39;;;;;;;29.33;13.75;;;;;;;2.85;48.11;100053.47;5031551;28;20042;-69
2021/01/16 10:36:11;;;;;;;25.17;13.63;;;;;;;2.62;48.44;100057.13;5022821;28;20064;-69
2021/01/16 10:38:41;;;;;;;26.98;13.68;;;;;;;2.60;48.64;100043.34;5025483;28;20080;-69
2021/01/16 10:41:08;;;;;;;25.33;14.02;;;;;;;2.67;48.92;100041.56;5020745;28;20067;-69
2021/01/16 10:43:34;;;;;;;27.42;15.45;;;;;;;2.89;48.24;100034.44;5032447;28;20129;-69
2021/01/16 10:46:11;;;;;;;19.55;12.18;;;;;;;2.67;48.86;100034.66;5021600;28;20516;-69
2021/01/16 10:48:39;;;;;;;23.65;12.77;;;;;;;2.64;49.15;100024.34;5021689;28;20503;-69
2021/01/16 10:51:06;;;;;;;23.05;12.57;;;;;;;2.75;49.09;100026.81;5026518;28;20405;-69
2021/01/16 10:53:37;;;;;;;23.05;12.65;;;;;;;2.55;49.58;100028.75;5022470;28;20061;-67
2021/01/16 10:56:14;;;;;;;20.92;12.18;;;;;;;2.21;50.51;100023.84;5024715;28;20046;-66
2021/01/16 10:58:41;;;;;;;21.80;12.95;;;;;;;2.15;50.33;100029.09;5028914;28;20564;-68
2021/01/16 11:01:09;;;;;;;23.67;12.77;;;;;;;2.06;50.63;100022.25;5027030;28;20073;-68
2021/01/16 11:03:36;;;;;;;26.95;13.85;;;;;;;2.01;50.64;100011.09;5024138;28;20058;-68
2021/01/16 11:06:06;;;;;;;23.02;12.63;;;;;;;1.88;51.17;100003.44;5021403;28;20132;-68
2021/01/16 11:08:34;;;;;;;28.98;15.75;;;;;;;1.80;51.47;100008.66;5024932;28;20041;-68
2021/01/16 11:11:01;;;;;;;27.15;14.43;;;;;;;1.76;51.38;100000.06;5027692;28;20045;-67
2021/01/16 11:13:28;;;;;;;28.67;15.07;;;;;;;1.70;51.48;99996.66;5029957;28;20517;-68
2021/01/16 11:15:57;;;;;;;20.55;11.88;;;;;;;1.69;51.72;100000.97;5024800;28;20049;-68
2021/01/16 11:18:35;;;;;;;26.30;13.77;;;;;;;1.59;51.82;100001.03;5017892;28;20080;-68
2021/01/16 11:21:06;;;;;;;42.33;18.70;;;;;;;1.53;51.97;99995.03;5025278;28;20056;-68